Time;durP1;ratioP1;P1;durP2;ratioP2;P2;SDS_P1;SDS_P2;PMS_P1;PMS_P2;Temp;Humidity;BMP_temperature;BMP_pressure;BME280_temperature;BME280_humidity;BME280_pressure;Samples;Min_cycle;Max_cycle;Signal;HPM_P1;HPM_P2
2023/07/19 00:05:12;;;;;;;6.97;2.30;;;;;;;;;;5035629;28;20126;-80
2023/07/19 00:11:53;;;;;;;2.90;2.10;;;;;;;;;;4928827;28;20090;-77
2023/07/19 00:14:19;;;;;;;5.38;2.10;;;;;;;;;;4970685;28;20038;-77
2023/07/19 00:16:46;;;;;;;4.15;2.20;;;;;;;;;;5075313;28;20102;-77
2023/07/19 00:19:23;;;;;;;3.38;2.22;;;;;;;;;;5001561;28;20046;-77
2023/07/19 00:28:41;;;;;;;4.70;2.40;;;;;;;;;;4990180;28;20041;-80
2023/07/19 00:31:10;;;;;;;5.03;1.90;;;;;;;;;;5003882;28;20049;-81
2023/07/19 00:34:11;;;;;;;4.30;2.42;;;;;;;;;;5015532;28;20080;-77
2023/07/19 00:36:40;;;;;;;5.88;2.65;;;;;;;;;;5042697;28;20037;-77
2023/07/19 00:39:20;;;;;;;3.95;2.97;;;;;;;;;;5051183;28;20692;-77
2023/07/19 00:42:44;;;;;;;4.75;2.60;;;;;;;;;;5066125;28;20037;-81
2023/07/19 00:49:18;;;;;;;3.33;2.70;;;;;;;;;;4979862;28;19920;-81
2023/07/19 00:55:13;;;;;;;8.45;3.00;;;;;;;;;;5013240;28;20049;-80
2023/07/19 00:57:47;;;;;;;5.68;2.95;;;;;;;;;;5005799;28;20748;-77
2023/07/19 01:00:16;;;;;;;5.82;2.97;;;;;;;;;;5003728;28;20646;-77
2023/07/19 01:03:21;;;;;;;5.57;2.85;;;;;;;;;;5010605;28;20034;-77
2023/07/19 01:05:52;;;;;;;7.68;3.38;;;;;;;;;;4996587;28;20697;-77
2023/07/19 01:11:54;;;;;;;5.97;3.25;;;;;;;;;;4908962;29;20043;-77
2023/07/19 01:29:11;;;;;;;5.00;3.30;;;;;;;;;;4817164;29;20038;-77
2023/07/19 01:42:32;;;;;;;4.35;2.97;;;;;;;;;;4837931;29;20040;-77
2023/07/19 01:45:01;;;;;;;5.20;2.67;;;;;;;;;;4822935;29;20049;-77
2023/07/19 01:47:28;;;;;;;5.35;3.03;;;;;;;;;;4873133;29;20032;-77
2023/07/19 02:00:08;;;;;;;4.25;2.70;;;;;;;;;;4889962;29;20218;-77
2023/07/19 02:02:39;;;;;;;3.92;2.85;;;;;;;;;;5000257;28;20542;-77
2023/07/19 02:05:23;;;;;;;5.22;2.97;;;;;;;;;;5032309;28;20122;-77
2023/07/19 21:39:58;;;;;;;4.57;1.60;;;;;;;;;;5088274;27;20462;-83
2023/07/19 21:42:30;;;;;;;9.10;1.95;;;;;;;;;;5058885;28;20060;-82
2023/07/19 21:45:05;;;;;;;2.53;1.55;;;;;;;;;;5061764;28;20025;-84
2023/07/19 21:51:28;;;;;;;3.63;1.63;;;;;;;;;;5010998;28;20514;-84
2023/07/19 21:53:49;;;;;;;8.32;1.83;;;;;;;;;;5052840;28;20529;-84
2023/07/19 21:56:21;;;;;;;4.07;1.70;;;;;;;;;;5047990;28;20036;-84
2023/07/19 21:58:50;;;;;;;2.92;1.70;;;;;;;;;;5068147;28;20402;-84
2023/07/19 22:01:15;;;;;;;3.17;1.70;;;;;;;;;;5059295;28;20668;-84
2023/07/19 22:03:41;;;;;;;2.70;1.75;;;;;;;;;;5059954;28;20090;-84
2023/07/19 22:06:55;;;;;;;5.82;1.90;;;;;;;;;;5061044;28;20028;-84
2023/07/19 22:09:05;;;;;;;4.78;1.42;;;;;;;;;;5032874;28;20068;-84
2023/07/19 22:11:37;;;;;;;6.53;1.70;;;;;;;;;;5053859;28;20041;-84
2023/07/19 22:14:10;;;;;;;2.35;1.55;;;;;;;;;;5044400;28;20707;-83
2023/07/19 22:16:41;;;;;;;3.50;1.60;;;;;;;;;;5049248;28;20613;-84
2023/07/19 22:19:07;;;;;;;3.72;1.73;;;;;;;;;;5060824;28;20055;-84
2023/07/19 22:21:34;;;;;;;2.60;1.70;;;;;;;;;;5042581;28;20029;-84
2023/07/19 22:24:07;;;;;;;4.75;1.77;;;;;;;;;;5051968;28;20029;-84
2023/07/19 22:26:38;;;;;;;6.03;1.75;;;;;;;;;;5040216;28;20071;-84
2023/07/19 22:40:51;;;;;;;;;;;;;;;;;;;;;
2023/07/19 22:56:03;;;;;;;4.20;2.13;;;;;;;;;;4920181;29;20083;-83
2023/07/19 22:58:30;;;;;;;6.03;2.13;;;;;;;;;;4984627;28;20101;-83
2023/07/19 23:00:57;;;;;;;5.10;1.95;;;;;;;;;;4989121;28;20042;-83
2023/07/19 23:04:35;;;;;;;;;;;;;;;;;;;;;
2023/07/19 23:06:36;;;;;;;3.88;1.88;;;;;;;;;;4975683;28;20038;-83
2023/07/19 23:09:03;;;;;;;5.05;1.88;;;;;;;;;;5048611;28;20402;-83
2023/07/19 23:12:05;;;;;;;3.35;2.08;;;;;;;;;;5038922;28;20109;-83
2023/07/19 23:14:51;;;;;;;3.85;1.70;;;;;;;;;;5024997;28;20037;-83
2023/07/19 23:17:17;;;;;;;3.42;1.88;;;;;;;;;;5038867;28;20045;-83
2023/07/19 23:22:38;;;;;;;4.35;2.00;;;;;;;;;;4994510;28;20034;-83
2023/07/19 23:25:33;;;;;;;5.07;1.70;;;;;;;;;;5042813;28;20037;-83
2023/07/19 23:28:02;;;;;;;3.80;1.73;;;;;;;;;;5024002;28;20483;-83
2023/07/19 23:30:33;;;;;;;3.90;1.80;;;;;;;;;;5027947;28;20040;-83
2023/07/19 23:33:00;;;;;;;4.68;2.17;;;;;;;;;;5037180;28;20021;-83
2023/07/19 23:35:31;;;;;;;3.88;1.80;;;;;;;;;;5046083;28;20047;-83
2023/07/19 23:37:59;;;;;;;6.47;2.00;;;;;;;;;;5046694;28;20073;-83
2023/07/19 23:40:30;;;;;;;4.45;2.10;;;;;;;;;;5038302;28;20591;-83
2023/07/19 23:43:10;;;;;;;2.88;1.83;;;;;;;;;;5021331;28;20132;-83
2023/07/19 23:45:49;;;;;;;;;;;;;;;;;;;;;
2023/07/19 23:48:45;;;;;;;8.25;2.15;;;;;;;;;;5008710;28;20037;-83
2023/07/19 23:51:17;;;;;;;4.65;1.90;;;;;;;;;;5046302;28;20064;-83
2023/07/19 23:54:01;;;;;;;;;;;;;;;;;;;;;
2023/07/19 23:56:37;;;;;;;;;;;;;;;;;;;;;
2023/07/19 23:59:32;;;;;;;7.22;2.22;;;;;;;;;;5031279;28;20045;-83
